sensor_id;sensor_type;location;lat;lon;timestamp;P1;durP1;ratioP1;P2;durP2;ratioP2
68989;SDS011;56046;47.270;11.368;2023-05-07T00:01:33;7.47;;;3.10;;
68989;SDS011;56046;47.270;11.368;2023-05-07T00:03:58;5.73;;;3.10;;
68989;SDS011;56046;47.270;11.368;2023-05-07T00:06:23;7.43;;;3.50;;
68989;SDS011;56046;47.270;11.368;2023-05-07T00:08:49;6.20;;;3.50;;
68989;SDS011;56046;47.270;11.368;2023-05-07T00:11:14;6.70;;;3.70;;
68989;SDS011;56046;47.270;11.368;2023-05-07T00:13:39;5.37;;;3.30;;
68989;SDS011;56046;47.270;11.368;2023-05-07T00:16:05;5.63;;;3.07;;
68989;SDS011;56046;47.270;11.368;2023-05-07T00:18:30;6.53;;;3.20;;
68989;SDS011;56046;47.270;11.368;2023-05-07T00:20:55;5.80;;;3.70;;
68989;SDS011;56046;47.270;11.368;2023-05-07T00:23:21;6.30;;;3.40;;
68989;SDS011;56046;47.270;11.368;2023-05-07T00:25:46;6.00;;;3.43;;
68989;SDS011;56046;47.270;11.368;2023-05-07T00:28:11;6.53;;;3.63;;
68989;SDS011;56046;47.270;11.368;2023-05-07T00:30:37;6.30;;;3.20;;
68989;SDS011;56046;47.270;11.368;2023-05-07T00:33:02;6.43;;;3.37;;
68989;SDS011;56046;47.270;11.368;2023-05-07T00:35:28;5.83;;;3.50;;
68989;SDS011;56046;47.270;11.368;2023-05-07T00:37:53;7.55;;;3.85;;
68989;SDS011;56046;47.270;11.368;2023-05-07T00:40:19;6.43;;;3.43;;
68989;SDS011;56046;47.270;11.368;2023-05-07T00:42:44;6.27;;;4.03;;
68989;SDS011;56046;47.270;11.368;2023-05-07T00:45:12;6.65;;;3.55;;
68989;SDS011;56046;47.270;11.368;2023-05-07T00:47:37;7.07;;;3.33;;
68989;SDS011;56046;47.270;11.368;2023-05-07T00:50:02;6.23;;;3.50;;
68989;SDS011;56046;47.270;11.368;2023-05-07T00:52:28;7.68;;;3.65;;
68989;SDS011;56046;47.270;11.368;2023-05-07T00:54:54;6.82;;;3.60;;
68989;SDS011;56046;47.270;11.368;2023-05-07T00:57:20;5.17;;;3.00;;
68989;SDS011;56046;47.270;11.368;2023-05-07T00:59:46;6.40;;;3.30;;
68989;SDS011;56046;47.270;11.368;2023-05-07T01:02:11;7.57;;;3.53;;
68989;SDS011;56046;47.270;11.368;2023-05-07T01:04:37;6.50;;;3.50;;
68989;SDS011;56046;47.270;11.368;2023-05-07T01:07:02;6.77;;;3.60;;
68989;SDS011;56046;47.270;11.368;2023-05-07T01:09:28;6.50;;;3.63;;
68989;SDS011;56046;47.270;11.368;2023-05-07T01:11:53;6.00;;;3.50;;
68989;SDS011;56046;47.270;11.368;2023-05-07T01:14:20;7.65;;;3.85;;
68989;SDS011;56046;47.270;11.368;2023-05-07T01:16:46;5.47;;;3.40;;
68989;SDS011;56046;47.270;11.368;2023-05-07T01:19:11;7.55;;;3.33;;
68989;SDS011;56046;47.270;11.368;2023-05-07T01:21:38;9.75;;;3.50;;
68989;SDS011;56046;47.270;11.368;2023-05-07T01:24:06;7.22;;;3.55;;
68989;SDS011;56046;47.270;11.368;2023-05-07T01:26:32;8.73;;;3.60;;
68989;SDS011;56046;47.270;11.368;2023-05-07T01:28:57;7.43;;;3.40;;
68989;SDS011;56046;47.270;11.368;2023-05-07T01:31:23;7.33;;;3.53;;
68989;SDS011;56046;47.270;11.368;2023-05-07T01:33:49;6.15;;;3.28;;
68989;SDS011;56046;47.270;11.368;2023-05-07T01:36:15;6.65;;;3.50;;
68989;SDS011;56046;47.270;11.368;2023-05-07T01:38:42;5.82;;;3.17;;
68989;SDS011;56046;47.270;11.368;2023-05-07T01:41:08;6.53;;;3.23;;
68989;SDS011;56046;47.270;11.368;2023-05-07T01:43:33;6.90;;;2.87;;
68989;SDS011;56046;47.270;11.368;2023-05-07T01:45:58;6.75;;;3.42;;
68989;SDS011;56046;47.270;11.368;2023-05-07T01:48:25;4.97;;;2.80;;
68989;SDS011;56046;47.270;11.368;2023-05-07T01:50:50;6.47;;;4.20;;
68989;SDS011;56046;47.270;11.368;2023-05-07T01:53:16;7.50;;;3.70;;
68989;SDS011;56046;47.270;11.368;2023-05-07T01:55:41;5.67;;;3.63;;
68989;SDS011;56046;47.270;11.368;2023-05-07T01:58:07;7.57;;;3.37;;
68989;SDS011;56046;47.270;11.368;2023-05-07T02:00:32;6.60;;;3.27;;
68989;SDS011;56046;47.270;11.368;2023-05-07T02:02:57;7.70;;;3.90;;
68989;SDS011;56046;47.270;11.368;2023-05-07T02:05:23;5.90;;;3.80;;
68989;SDS011;56046;47.270;11.368;2023-05-07T02:07:48;7.50;;;3.70;;
68989;SDS011;56046;47.270;11.368;2023-05-07T02:10:13;8.63;;;3.90;;
68989;SDS011;56046;47.270;11.368;2023-05-07T02:12:38;5.93;;;3.73;;
68989;SDS011;56046;47.270;11.368;2023-05-07T02:15:04;8.20;;;3.67;;
68989;SDS011;56046;47.270;11.368;2023-05-07T02:17:30;5.80;;;3.33;;
68989;SDS011;56046;47.270;11.368;2023-05-07T02:19:57;7.57;;;3.50;;
68989;SDS011;56046;47.270;11.368;2023-05-07T02:22:22;9.77;;;3.40;;
68989;SDS011;56046;47.270;11.368;2023-05-07T02:24:47;7.47;;;3.63;;
68989;SDS011;56046;47.270;11.368;2023-05-07T02:27:12;5.17;;;2.80;;
68989;SDS011;56046;47.270;11.368;2023-05-07T02:29:38;5.53;;;2.73;;
68989;SDS011;56046;47.270;11.368;2023-05-07T02:32:03;7.10;;;3.10;;
68989;SDS011;56046;47.270;11.368;2023-05-07T02:34:29;5.27;;;3.03;;
68989;SDS011;56046;47.270;11.368;2023-05-07T02:36:55;6.13;;;3.13;;
68989;SDS011;56046;47.270;11.368;2023-05-07T02:39:20;6.07;;;3.15;;
68989;SDS011;56046;47.270;11.368;2023-05-07T02:41:46;6.63;;;3.30;;
68989;SDS011;56046;47.270;11.368;2023-05-07T02:44:11;5.30;;;3.33;;
68989;SDS011;56046;47.270;11.368;2023-05-07T02:46:36;5.57;;;3.20;;
68989;SDS011;56046;47.270;11.368;2023-05-07T02:49:01;7.23;;;3.70;;
68989;SDS011;56046;47.270;11.368;2023-05-07T02:51:26;6.40;;;3.20;;
68989;SDS011;56046;47.270;11.368;2023-05-07T02:53:52;7.43;;;3.40;;
68989;SDS011;56046;47.270;11.368;2023-05-07T02:56:17;8.00;;;3.23;;
68989;SDS011;56046;47.270;11.368;2023-05-07T02:58:42;7.67;;;3.33;;
68989;SDS011;56046;47.270;11.368;2023-05-07T03:01:08;7.10;;;3.43;;
68989;SDS011;56046;47.270;11.368;2023-05-07T03:03:33;5.72;;;3.25;;
68989;SDS011;56046;47.270;11.368;2023-05-07T03:05:59;7.90;;;3.10;;
68989;SDS011;56046;47.270;11.368;2023-05-07T03:08:24;5.77;;;3.73;;
68989;SDS011;56046;47.270;11.368;2023-05-07T03:10:50;7.40;;;3.00;;
68989;SDS011;56046;47.270;11.368;2023-05-07T03:13:15;5.33;;;3.20;;
68989;SDS011;56046;47.270;11.368;2023-05-07T03:15:41;7.00;;;3.03;;
68989;SDS011;56046;47.270;11.368;2023-05-07T03:18:06;5.67;;;2.90;;
68989;SDS011;56046;47.270;11.368;2023-05-07T03:20:31;5.38;;;2.70;;
68989;SDS011;56046;47.270;11.368;2023-05-07T03:22:57;6.03;;;2.97;;
68989;SDS011;56046;47.270;11.368;2023-05-07T03:25:22;6.23;;;3.07;;
68989;SDS011;56046;47.270;11.368;2023-05-07T03:27:47;6.17;;;3.03;;
68989;SDS011;56046;47.270;11.368;2023-05-07T03:30:12;5.20;;;2.90;;
68989;SDS011;56046;47.270;11.368;2023-05-07T03:32:38;5.53;;;3.03;;
68989;SDS011;56046;47.270;11.368;2023-05-07T03:35:03;7.90;;;3.47;;
68989;SDS011;56046;47.270;11.368;2023-05-07T03:37:29;6.33;;;3.40;;
68989;SDS011;56046;47.270;11.368;2023-05-07T03:39:54;5.70;;;3.00;;
68989;SDS011;56046;47.270;11.368;2023-05-07T03:42:19;5.77;;;3.00;;
68989;SDS011;56046;47.270;11.368;2023-05-07T03:44:45;5.83;;;3.10;;
68989;SDS011;56046;47.270;11.368;2023-05-07T03:47:10;6.87;;;3.60;;
68989;SDS011;56046;47.270;11.368;2023-05-07T03:49:35;6.83;;;2.83;;
68989;SDS011;56046;47.270;11.368;2023-05-07T03:52:00;5.33;;;2.83;;
68989;SDS011;56046;47.270;11.368;2023-05-07T03:54:26;5.90;;;3.27;;
68989;SDS011;56046;47.270;11.368;2023-05-07T03:56:51;6.53;;;3.40;;
68989;SDS011;56046;47.270;11.368;2023-05-07T03:59:16;6.37;;;3.90;;
68989;SDS011;56046;47.270;11.368;2023-05-07T04:01:41;6.57;;;3.60;;
68989;SDS011;56046;47.270;11.368;2023-05-07T04:04:07;6.10;;;3.63;;
68989;SDS011;56046;47.270;11.368;2023-05-07T04:06:32;7.90;;;4.23;;
68989;SDS011;56046;47.270;11.368;2023-05-07T04:08:57;7.97;;;3.97;;
68989;SDS011;56046;47.270;11.368;2023-05-07T04:11:22;9.13;;;4.18;;
68989;SDS011;56046;47.270;11.368;2023-05-07T04:13:48;7.37;;;3.60;;
68989;SDS011;56046;47.270;11.368;2023-05-07T04:16:13;6.30;;;3.70;;
68989;SDS011;56046;47.270;11.368;2023-05-07T04:18:38;7.40;;;4.23;;
68989;SDS011;56046;47.270;11.368;2023-05-07T04:21:04;7.67;;;3.87;;
68989;SDS011;56046;47.270;11.368;2023-05-07T04:23:29;7.50;;;4.00;;
68989;SDS011;56046;47.270;11.368;2023-05-07T04:25:55;6.47;;;3.60;;
68989;SDS011;56046;47.270;11.368;2023-05-07T04:28:21;8.73;;;3.70;;
68989;SDS011;56046;47.270;11.368;2023-05-07T04:30:46;6.37;;;3.90;;
68989;SDS011;56046;47.270;11.368;2023-05-07T04:33:11;9.10;;;4.03;;
68989;SDS011;56046;47.270;11.368;2023-05-07T04:35:36;5.97;;;3.73;;
68989;SDS011;56046;47.270;11.368;2023-05-07T04:38:02;6.40;;;3.63;;
68989;SDS011;56046;47.270;11.368;2023-05-07T04:40:27;5.87;;;3.37;;
68989;SDS011;56046;47.270;11.368;2023-05-07T04:42:52;8.03;;;3.80;;
68989;SDS011;56046;47.270;11.368;2023-05-07T04:45:18;7.07;;;3.70;;
68989;SDS011;56046;47.270;11.368;2023-05-07T04:47:43;7.40;;;3.83;;
68989;SDS011;56046;47.270;11.368;2023-05-07T04:50:09;7.33;;;3.90;;
68989;SDS011;56046;47.270;11.368;2023-05-07T04:52:34;8.60;;;4.10;;
68989;SDS011;56046;47.270;11.368;2023-05-07T04:54:59;6.40;;;3.97;;
68989;SDS011;56046;47.270;11.368;2023-05-07T04:57:25;6.85;;;3.60;;
68989;SDS011;56046;47.270;11.368;2023-05-07T04:59:51;6.07;;;3.50;;
68989;SDS011;56046;47.270;11.368;2023-05-07T05:02:16;6.67;;;3.67;;
68989;SDS011;56046;47.270;11.368;2023-05-07T05:04:41;6.13;;;3.27;;
68989;SDS011;56046;47.270;11.368;2023-05-07T05:07:07;5.93;;;3.30;;
68989;SDS011;56046;47.270;11.368;2023-05-07T05:09:32;6.07;;;2.93;;
68989;SDS011;56046;47.270;11.368;2023-05-07T05:11:57;6.63;;;3.10;;
68989;SDS011;56046;47.270;11.368;2023-05-07T05:14:22;6.23;;;3.07;;
68989;SDS011;56046;47.270;11.368;2023-05-07T05:16:48;6.23;;;3.40;;
68989;SDS011;56046;47.270;11.368;2023-05-07T05:19:13;7.97;;;3.80;;
68989;SDS011;56046;47.270;11.368;2023-05-07T05:21:38;7.90;;;3.60;;
68989;SDS011;56046;47.270;11.368;2023-05-07T05:24:03;5.60;;;3.87;;
68989;SDS011;56046;47.270;11.368;2023-05-07T05:26:29;5.97;;;3.67;;
68989;SDS011;56046;47.270;11.368;2023-05-07T05:28:54;7.07;;;3.17;;
68989;SDS011;56046;47.270;11.368;2023-05-07T05:31:19;7.17;;;3.30;;
68989;SDS011;56046;47.270;11.368;2023-05-07T05:33:45;7.17;;;3.70;;
68989;SDS011;56046;47.270;11.368;2023-05-07T05:36:10;8.40;;;3.63;;
68989;SDS011;56046;47.270;11.368;2023-05-07T05:38:36;6.10;;;3.65;;
68989;SDS011;56046;47.270;11.368;2023-05-07T05:41:01;5.63;;;3.90;;
68989;SDS011;56046;47.270;11.368;2023-05-07T05:43:26;10.00;;;3.93;;
68989;SDS011;56046;47.270;11.368;2023-05-07T05:45:51;5.73;;;3.60;;
68989;SDS011;56046;47.270;11.368;2023-05-07T05:48:17;6.60;;;3.70;;
68989;SDS011;56046;47.270;11.368;2023-05-07T05:50:42;8.20;;;4.10;;
68989;SDS011;56046;47.270;11.368;2023-05-07T05:53:07;5.80;;;3.07;;
68989;SDS011;56046;47.270;11.368;2023-05-07T05:55:33;6.70;;;3.38;;
68989;SDS011;56046;47.270;11.368;2023-05-07T05:57:59;8.03;;;3.70;;
68989;SDS011;56046;47.270;11.368;2023-05-07T06:00:24;7.40;;;4.00;;
68989;SDS011;56046;47.270;11.368;2023-05-07T06:02:50;5.57;;;3.53;;
68989;SDS011;56046;47.270;11.368;2023-05-07T06:05:15;8.40;;;3.87;;
68989;SDS011;56046;47.270;11.368;2023-05-07T06:07:40;6.93;;;3.83;;
68989;SDS011;56046;47.270;11.368;2023-05-07T06:10:06;5.57;;;3.40;;
68989;SDS011;56046;47.270;11.368;2023-05-07T06:12:31;5.65;;;3.42;;
68989;SDS011;56046;47.270;11.368;2023-05-07T06:14:57;4.70;;;3.33;;
68989;SDS011;56046;47.270;11.368;2023-05-07T06:17:22;6.83;;;3.77;;
68989;SDS011;56046;47.270;11.368;2023-05-07T06:19:47;8.77;;;3.90;;
68989;SDS011;56046;47.270;11.368;2023-05-07T06:22:12;7.07;;;3.70;;
68989;SDS011;56046;47.270;11.368;2023-05-07T06:24:38;4.70;;;3.37;;
68989;SDS011;56046;47.270;11.368;2023-05-07T06:27:03;5.83;;;3.40;;
68989;SDS011;56046;47.270;11.368;2023-05-07T06:29:28;6.07;;;3.30;;
68989;SDS011;56046;47.270;11.368;2023-05-07T06:31:56;5.13;;;3.25;;
68989;SDS011;56046;47.270;11.368;2023-05-07T06:34:21;5.80;;;3.40;;
68989;SDS011;56046;47.270;11.368;2023-05-07T06:36:47;6.00;;;3.43;;
68989;SDS011;56046;47.270;11.368;2023-05-07T06:39:12;6.77;;;3.07;;
68989;SDS011;56046;47.270;11.368;2023-05-07T06:41:37;7.90;;;4.13;;
68989;SDS011;56046;47.270;11.368;2023-05-07T06:44:02;6.67;;;3.50;;
68989;SDS011;56046;47.270;11.368;2023-05-07T06:46:28;6.37;;;3.70;;
68989;SDS011;56046;47.270;11.368;2023-05-07T06:48:53;6.43;;;3.65;;
68989;SDS011;56046;47.270;11.368;2023-05-07T06:51:19;6.20;;;3.50;;
68989;SDS011;56046;47.270;11.368;2023-05-07T06:53:44;4.90;;;3.30;;
68989;SDS011;56046;47.270;11.368;2023-05-07T06:56:09;4.90;;;3.27;;
68989;SDS011;56046;47.270;11.368;2023-05-07T06:58:35;5.40;;;3.23;;
68989;SDS011;56046;47.270;11.368;2023-05-07T07:01:00;6.43;;;3.22;;
68989;SDS011;56046;47.270;11.368;2023-05-07T07:03:25;4.43;;;2.57;;
68989;SDS011;56046;47.270;11.368;2023-05-07T07:05:51;5.93;;;3.37;;
68989;SDS011;56046;47.270;11.368;2023-05-07T07:08:17;6.47;;;3.40;;
68989;SDS011;56046;47.270;11.368;2023-05-07T07:10:43;4.97;;;3.13;;
68989;SDS011;56046;47.270;11.368;2023-05-07T07:13:08;5.90;;;3.50;;
68989;SDS011;56046;47.270;11.368;2023-05-07T07:15:33;6.27;;;3.50;;
68989;SDS011;56046;47.270;11.368;2023-05-07T07:17:58;6.30;;;3.43;;
68989;SDS011;56046;47.270;11.368;2023-05-07T07:20:23;4.97;;;2.90;;
68989;SDS011;56046;47.270;11.368;2023-05-07T07:22:49;5.43;;;3.17;;
68989;SDS011;56046;47.270;11.368;2023-05-07T07:25:14;5.67;;;3.10;;
68989;SDS011;56046;47.270;11.368;2023-05-07T07:27:39;5.33;;;2.80;;
68989;SDS011;56046;47.270;11.368;2023-05-07T07:30:05;5.57;;;2.73;;
68989;SDS011;56046;47.270;11.368;2023-05-07T07:32:30;5.72;;;2.70;;
68989;SDS011;56046;47.270;11.368;2023-05-07T07:34:57;4.70;;;2.70;;
68989;SDS011;56046;47.270;11.368;2023-05-07T07:37:22;4.00;;;2.60;;
68989;SDS011;56046;47.270;11.368;2023-05-07T07:39:50;4.80;;;2.88;;
68989;SDS011;56046;47.270;11.368;2023-05-07T07:42:15;3.40;;;2.70;;
68989;SDS011;56046;47.270;11.368;2023-05-07T07:44:40;4.57;;;2.77;;
68989;SDS011;56046;47.270;11.368;2023-05-07T07:47:06;4.97;;;2.80;;
68989;SDS011;56046;47.270;11.368;2023-05-07T07:49:31;5.60;;;2.80;;
68989;SDS011;56046;47.270;11.368;2023-05-07T07:51:56;5.13;;;2.43;;
68989;SDS011;56046;47.270;11.368;2023-05-07T07:54:24;5.35;;;2.30;;
68989;SDS011;56046;47.270;11.368;2023-05-07T07:56:49;3.83;;;2.37;;
68989;SDS011;56046;47.270;11.368;2023-05-07T07:59:15;3.83;;;2.17;;
68989;SDS011;56046;47.270;11.368;2023-05-07T08:01:43;5.80;;;2.53;;
68989;SDS011;56046;47.270;11.368;2023-05-07T08:04:09;3.37;;;2.20;;
68989;SDS011;56046;47.270;11.368;2023-05-07T08:06:34;2.77;;;2.10;;
68989;SDS011;56046;47.270;11.368;2023-05-07T08:08:59;4.13;;;2.20;;
68989;SDS011;56046;47.270;11.368;2023-05-07T08:11:24;3.08;;;2.00;;
68989;SDS011;56046;47.270;11.368;2023-05-07T08:13:50;3.37;;;2.17;;
68989;SDS011;56046;47.270;11.368;2023-05-07T08:16:15;3.40;;;1.70;;
68989;SDS011;56046;47.270;11.368;2023-05-07T08:18:41;4.43;;;2.07;;
68989;SDS011;56046;47.270;11.368;2023-05-07T08:21:06;4.73;;;2.07;;
68989;SDS011;56046;47.270;11.368;2023-05-07T08:23:31;2.20;;;1.80;;
68989;SDS011;56046;47.270;11.368;2023-05-07T08:25:57;4.30;;;2.10;;
68989;SDS011;56046;47.270;11.368;2023-05-07T08:28:22;4.97;;;1.97;;
68989;SDS011;56046;47.270;11.368;2023-05-07T08:30:49;2.25;;;1.60;;
68989;SDS011;56046;47.270;11.368;2023-05-07T08:33:14;2.73;;;1.80;;
68989;SDS011;56046;47.270;11.368;2023-05-07T08:35:40;2.97;;;1.73;;
68989;SDS011;56046;47.270;11.368;2023-05-07T08:38:05;3.47;;;2.00;;
68989;SDS011;56046;47.270;11.368;2023-05-07T08:40:31;3.00;;;2.03;;
68989;SDS011;56046;47.270;11.368;2023-05-07T08:42:59;2.65;;;1.80;;
68989;SDS011;56046;47.270;11.368;2023-05-07T08:45:25;2.65;;;1.42;;
68989;SDS011;56046;47.270;11.368;2023-05-07T08:47:52;2.97;;;2.03;;
68989;SDS011;56046;47.270;11.368;2023-05-07T08:50:17;3.25;;;2.10;;
68989;SDS011;56046;47.270;11.368;2023-05-07T08:52:43;2.97;;;2.17;;
68989;SDS011;56046;47.270;11.368;2023-05-07T08:55:08;3.40;;;1.70;;
68989;SDS011;56046;47.270;11.368;2023-05-07T08:57:34;4.13;;;1.83;;
68989;SDS011;56046;47.270;11.368;2023-05-07T08:59:59;3.57;;;2.30;;
68989;SDS011;56046;47.270;11.368;2023-05-07T09:02:25;3.40;;;2.10;;
68989;SDS011;56046;47.270;11.368;2023-05-07T09:04:50;3.50;;;1.70;;
68989;SDS011;56046;47.270;11.368;2023-05-07T09:07:16;4.47;;;2.13;;
68989;SDS011;56046;47.270;11.368;2023-05-07T09:09:41;2.53;;;1.87;;
68989;SDS011;56046;47.270;11.368;2023-05-07T09:12:06;2.80;;;2.03;;
68989;SDS011;56046;47.270;11.368;2023-05-07T09:14:32;2.70;;;1.80;;
68989;SDS011;56046;47.270;11.368;2023-05-07T09:16:57;3.50;;;2.00;;
68989;SDS011;56046;47.270;11.368;2023-05-07T09:19:23;2.87;;;2.00;;
68989;SDS011;56046;47.270;11.368;2023-05-07T09:21:48;2.65;;;2.00;;
68989;SDS011;56046;47.270;11.368;2023-05-07T09:24:15;3.50;;;2.00;;
68989;SDS011;56046;47.270;11.368;2023-05-07T09:26:40;3.03;;;1.75;;
68989;SDS011;56046;47.270;11.368;2023-05-07T09:29:06;3.30;;;1.90;;
68989;SDS011;56046;47.270;11.368;2023-05-07T09:31:31;3.40;;;2.00;;
68989;SDS011;56046;47.270;11.368;2023-05-07T09:33:57;2.43;;;1.93;;
68989;SDS011;56046;47.270;11.368;2023-05-07T09:36:22;2.85;;;2.03;;
68989;SDS011;56046;47.270;11.368;2023-05-07T09:38:47;3.30;;;1.73;;
68989;SDS011;56046;47.270;11.368;2023-05-07T09:41:14;4.97;;;2.63;;
68989;SDS011;56046;47.270;11.368;2023-05-07T09:43:40;3.93;;;1.93;;
68989;SDS011;56046;47.270;11.368;2023-05-07T09:46:11;2.97;;;1.90;;
68989;SDS011;56046;47.270;11.368;2023-05-07T09:48:37;4.68;;;1.88;;
68989;SDS011;56046;47.270;11.368;2023-05-07T09:51:03;5.67;;;2.00;;
68989;SDS011;56046;47.270;11.368;2023-05-07T09:53:30;2.47;;;1.65;;
68989;SDS011;56046;47.270;11.368;2023-05-07T09:55:56;2.65;;;1.90;;
68989;SDS011;56046;47.270;11.368;2023-05-07T09:58:21;2.70;;;2.20;;
68989;SDS011;56046;47.270;11.368;2023-05-07T10:00:48;3.25;;;2.30;;
68989;SDS011;56046;47.270;11.368;2023-05-07T10:03:14;3.92;;;1.95;;
68989;SDS011;56046;47.270;11.368;2023-05-07T10:05:40;3.07;;;2.00;;
68989;SDS011;56046;47.270;11.368;2023-05-07T10:08:05;3.17;;;2.13;;
68989;SDS011;56046;47.270;11.368;2023-05-07T10:10:32;3.28;;;2.10;;
68989;SDS011;56046;47.270;11.368;2023-05-07T10:12:57;3.47;;;2.00;;
68989;SDS011;56046;47.270;11.368;2023-05-07T10:15:23;2.90;;;1.90;;
68989;SDS011;56046;47.270;11.368;2023-05-07T10:17:49;2.30;;;1.85;;
68989;SDS011;56046;47.270;11.368;2023-05-07T10:20:16;2.70;;;1.50;;
68989;SDS011;56046;47.270;11.368;2023-05-07T10:22:43;2.33;;;1.87;;
68989;SDS011;56046;47.270;11.368;2023-05-07T10:25:09;2.88;;;2.00;;
68989;SDS011;56046;47.270;11.368;2023-05-07T10:27:39;2.07;;;1.63;;
68989;SDS011;56046;47.270;11.368;2023-05-07T10:30:12;3.58;;;1.40;;
68989;SDS011;56046;47.270;11.368;2023-05-07T10:32:40;2.28;;;1.30;;
68989;SDS011;56046;47.270;11.368;2023-05-07T10:35:10;3.50;;;2.10;;
68989;SDS011;56046;47.270;11.368;2023-05-07T10:37:37;2.60;;;1.43;;
68989;SDS011;56046;47.270;11.368;2023-05-07T10:40:02;3.47;;;2.00;;
68989;SDS011;56046;47.270;11.368;2023-05-07T10:42:28;3.10;;;2.20;;
68989;SDS011;56046;47.270;11.368;2023-05-07T10:44:53;3.90;;;2.90;;
68989;SDS011;56046;47.270;11.368;2023-05-07T10:47:18;3.67;;;2.50;;
68989;SDS011;56046;47.270;11.368;2023-05-07T10:52:19;3.53;;;1.70;;
68989;SDS011;56046;47.270;11.368;2023-05-07T10:54:44;2.37;;;1.57;;
68989;SDS011;56046;47.270;11.368;2023-05-07T10:57:43;2.50;;;1.70;;
68989;SDS011;56046;47.270;11.368;2023-05-07T11:00:02;3.13;;;1.67;;
68989;SDS011;56046;47.270;11.368;2023-05-07T11:05:23;2.58;;;1.67;;
68989;SDS011;56046;47.270;11.368;2023-05-07T11:07:58;2.80;;;1.90;;
68989;SDS011;56046;47.270;11.368;2023-05-07T11:10:47;2.07;;;1.70;;
68989;SDS011;56046;47.270;11.368;2023-05-07T11:13:09;3.88;;;1.90;;
68989;SDS011;56046;47.270;11.368;2023-05-07T11:15:36;1.90;;;1.60;;
68989;SDS011;56046;47.270;11.368;2023-05-07T11:18:01;2.17;;;1.90;;
68989;SDS011;56046;47.270;11.368;2023-05-07T11:20:47;2.42;;;1.85;;
68989;SDS011;56046;47.270;11.368;2023-05-07T11:26:04;2.55;;;1.92;;
68989;SDS011;56046;47.270;11.368;2023-05-07T11:28:30;2.80;;;1.97;;
68989;SDS011;56046;47.270;11.368;2023-05-07T11:30:55;2.83;;;2.20;;
68989;SDS011;56046;47.270;11.368;2023-05-07T11:33:21;3.30;;;2.25;;
68989;SDS011;56046;47.270;11.368;2023-05-07T11:35:47;2.80;;;2.00;;
68989;SDS011;56046;47.270;11.368;2023-05-07T11:38:12;2.43;;;2.13;;
68989;SDS011;56046;47.270;11.368;2023-05-07T11:43:15;2.55;;;2.08;;
68989;SDS011;56046;47.270;11.368;2023-05-07T11:45:41;2.33;;;1.97;;
68989;SDS011;56046;47.270;11.368;2023-05-07T11:48:06;2.63;;;2.13;;
68989;SDS011;56046;47.270;11.368;2023-05-07T11:50:31;2.20;;;2.00;;
68989;SDS011;56046;47.270;11.368;2023-05-07T11:52:57;2.00;;;1.80;;
68989;SDS011;56046;47.270;11.368;2023-05-07T11:55:23;3.10;;;2.03;;
68989;SDS011;56046;47.270;11.368;2023-05-07T11:57:49;2.42;;;2.15;;
68989;SDS011;56046;47.270;11.368;2023-05-07T12:00:15;3.17;;;2.40;;
68989;SDS011;56046;47.270;11.368;2023-05-07T12:02:41;3.60;;;2.28;;
68989;SDS011;56046;47.270;11.368;2023-05-07T12:05:07;3.65;;;2.67;;
68989;SDS011;56046;47.270;11.368;2023-05-07T12:07:33;3.27;;;2.10;;
68989;SDS011;56046;47.270;11.368;2023-05-07T12:09:58;2.78;;;1.85;;
68989;SDS011;56046;47.270;11.368;2023-05-07T12:12:24;2.43;;;1.90;;
68989;SDS011;56046;47.270;11.368;2023-05-07T12:14:49;3.53;;;2.20;;
68989;SDS011;56046;47.270;11.368;2023-05-07T12:17:14;2.30;;;1.70;;
68989;SDS011;56046;47.270;11.368;2023-05-07T12:19:40;2.87;;;1.17;;
68989;SDS011;56046;47.270;11.368;2023-05-07T12:22:09;2.72;;;2.10;;
68989;SDS011;56046;47.270;11.368;2023-05-07T12:24:44;3.50;;;1.85;;
68989;SDS011;56046;47.270;11.368;2023-05-07T12:27:10;2.00;;;1.50;;
68989;SDS011;56046;47.270;11.368;2023-05-07T12:29:35;2.08;;;1.70;;
68989;SDS011;56046;47.270;11.368;2023-05-07T12:32:00;3.23;;;2.00;;
68989;SDS011;56046;47.270;11.368;2023-05-07T12:34:25;2.77;;;1.47;;
68989;SDS011;56046;47.270;11.368;2023-05-07T12:36:51;2.77;;;1.80;;
68989;SDS011;56046;47.270;11.368;2023-05-07T12:39:16;2.73;;;1.43;;
68989;SDS011;56046;47.270;11.368;2023-05-07T12:41:54;2.93;;;1.53;;
68989;SDS011;56046;47.270;11.368;2023-05-07T12:44:22;2.70;;;1.90;;
68989;SDS011;56046;47.270;11.368;2023-05-07T12:46:48;3.28;;;1.88;;
68989;SDS011;56046;47.270;11.368;2023-05-07T12:49:14;2.03;;;1.60;;
68989;SDS011;56046;47.270;11.368;2023-05-07T12:51:39;3.97;;;2.22;;
68989;SDS011;56046;47.270;11.368;2023-05-07T12:54:05;3.87;;;1.80;;
68989;SDS011;56046;47.270;11.368;2023-05-07T12:56:31;2.87;;;1.87;;
68989;SDS011;56046;47.270;11.368;2023-05-07T12:58:57;8.02;;;2.40;;
68989;SDS011;56046;47.270;11.368;2023-05-07T13:01:22;3.50;;;1.60;;
68989;SDS011;56046;47.270;11.368;2023-05-07T13:03:53;3.30;;;2.03;;
68989;SDS011;56046;47.270;11.368;2023-05-07T13:06:18;3.88;;;1.92;;
68989;SDS011;56046;47.270;11.368;2023-05-07T13:08:43;2.23;;;2.00;;
68989;SDS011;56046;47.270;11.368;2023-05-07T13:11:09;3.20;;;1.57;;
68989;SDS011;56046;47.270;11.368;2023-05-07T13:13:35;2.40;;;2.10;;
68989;SDS011;56046;47.270;11.368;2023-05-07T13:16:01;4.13;;;2.10;;
68989;SDS011;56046;47.270;11.368;2023-05-07T13:18:27;2.92;;;1.80;;
68989;SDS011;56046;47.270;11.368;2023-05-07T13:20:55;4.00;;;1.90;;
68989;SDS011;56046;47.270;11.368;2023-05-07T13:23:21;4.10;;;1.80;;
68989;SDS011;56046;47.270;11.368;2023-05-07T13:25:46;2.70;;;1.70;;
68989;SDS011;56046;47.270;11.368;2023-05-07T13:28:11;2.43;;;1.90;;
68989;SDS011;56046;47.270;11.368;2023-05-07T13:30:37;2.92;;;1.95;;
68989;SDS011;56046;47.270;11.368;2023-05-07T13:33:02;2.97;;;1.87;;
68989;SDS011;56046;47.270;11.368;2023-05-07T13:35:27;2.93;;;1.50;;
68989;SDS011;56046;47.270;11.368;2023-05-07T13:37:53;2.73;;;1.80;;
68989;SDS011;56046;47.270;11.368;2023-05-07T13:40:19;5.15;;;1.88;;
68989;SDS011;56046;47.270;11.368;2023-05-07T13:42:44;4.00;;;1.33;;
68989;SDS011;56046;47.270;11.368;2023-05-07T13:45:10;3.37;;;1.80;;
68989;SDS011;56046;47.270;11.368;2023-05-07T13:47:35;5.25;;;1.83;;
68989;SDS011;56046;47.270;11.368;2023-05-07T13:50:01;3.27;;;1.63;;
68989;SDS011;56046;47.270;11.368;2023-05-07T13:52:26;4.20;;;1.97;;
68989;SDS011;56046;47.270;11.368;2023-05-07T13:54:51;3.00;;;1.63;;
68989;SDS011;56046;47.270;11.368;2023-05-07T13:57:17;3.25;;;1.70;;
68989;SDS011;56046;47.270;11.368;2023-05-07T13:59:42;1.87;;;1.60;;
68989;SDS011;56046;47.270;11.368;2023-05-07T14:02:08;2.60;;;1.70;;
68989;SDS011;56046;47.270;11.368;2023-05-07T14:04:34;3.15;;;1.80;;
68989;SDS011;56046;47.270;11.368;2023-05-07T14:06:59;5.57;;;1.80;;
68989;SDS011;56046;47.270;11.368;2023-05-07T14:09:25;2.05;;;1.52;;
68989;SDS011;56046;47.270;11.368;2023-05-07T14:11:50;2.80;;;1.90;;
68989;SDS011;56046;47.270;11.368;2023-05-07T14:14:17;3.03;;;1.73;;
68989;SDS011;56046;47.270;11.368;2023-05-07T14:16:42;5.80;;;2.45;;
68989;SDS011;56046;47.270;11.368;2023-05-07T14:19:07;1.93;;;1.40;;
68989;SDS011;56046;47.270;11.368;2023-05-07T14:21:32;4.33;;;1.60;;
68989;SDS011;56046;47.270;11.368;2023-05-07T14:23:58;2.77;;;1.70;;
68989;SDS011;56046;47.270;11.368;2023-05-07T14:26:23;2.60;;;1.73;;
68989;SDS011;56046;47.270;11.368;2023-05-07T14:28:48;2.43;;;1.60;;
68989;SDS011;56046;47.270;11.368;2023-05-07T14:31:14;2.20;;;1.40;;
68989;SDS011;56046;47.270;11.368;2023-05-07T14:33:39;2.90;;;1.53;;
68989;SDS011;56046;47.270;11.368;2023-05-07T14:36:04;3.00;;;1.40;;